createdAt,value
2023-03-31T00:00:43.283Z,95893.72
2023-03-31T00:03:09.825Z,95891.38
2023-03-31T00:05:36.351Z,95891.13
2023-03-31T00:08:02.674Z,95897.31
2023-03-31T00:10:29.069Z,95883.34
2023-03-31T00:12:55.404Z,95879.88
2023-03-31T00:15:21.707Z,95883.34
2023-03-31T00:17:48.116Z,95875.22
2023-03-31T00:20:14.438Z,95874.34
2023-03-31T00:22:40.740Z,95859.69
2023-03-31T00:25:07.079Z,95848.16
2023-03-31T00:27:33.387Z,95845.72
2023-03-31T00:29:59.680Z,95858.25
2023-03-31T00:32:26.020Z,95862.28
2023-03-31T00:34:52.340Z,95863.59
2023-03-31T00:37:18.628Z,95849.22
2023-03-31T00:39:44.954Z,95843.31
2023-03-31T00:42:11.259Z,95837.59
2023-03-31T00:44:37.548Z,95840.25
2023-03-31T00:47:03.874Z,95841.81
2023-03-31T00:49:30.245Z,95841.88
2023-03-31T00:51:56.565Z,95845.13
2023-03-31T00:54:22.904Z,95836.81
2023-03-31T00:56:49.261Z,95826.41
2023-03-31T00:59:15.594Z,95819.50
2023-03-31T01:01:42.021Z,95816.06
2023-03-31T01:04:08.527Z,95817.41
2023-03-31T01:06:34.922Z,95819.31
2023-03-31T01:09:01.229Z,95827.41
2023-03-31T01:11:27.531Z,95822.28
2023-03-31T01:13:53.820Z,95828.50
2023-03-31T01:16:20.169Z,95831.19
2023-03-31T01:18:46.669Z,95823.38
2023-03-31T01:21:13.000Z,95816.59
2023-03-31T01:23:39.342Z,95813.50
2023-03-31T01:26:05.772Z,95798.13
2023-03-31T01:28:32.256Z,95796.56
2023-03-31T01:30:58.618Z,95796.16
2023-03-31T01:33:24.955Z,95786.53
2023-03-31T01:35:51.327Z,95787.50
2023-03-31T01:38:17.729Z,95786.56
2023-03-31T01:40:44.048Z,95785.94
2023-03-31T01:43:10.337Z,95781.44
2023-03-31T01:45:36.667Z,95775.06
2023-03-31T01:48:03.096Z,95771.19
2023-03-31T01:50:29.485Z,95772.88
2023-03-31T01:52:55.805Z,95754.78
2023-03-31T01:55:22.106Z,95739.19
2023-03-31T01:57:48.430Z,95743.81
2023-03-31T02:00:14.779Z,95734.66
2023-03-31T02:02:41.205Z,95728.53
2023-03-31T02:05:07.563Z,95711.91
2023-03-31T02:07:33.892Z,95698.88
2023-03-31T02:10:00.199Z,95704.16
2023-03-31T02:12:26.490Z,95695.75
2023-03-31T02:14:52.829Z,95683.63
2023-03-31T02:17:22.007Z,95677.25
2023-03-31T02:19:48.341Z,95666.38
2023-03-31T02:22:14.664Z,95662.81
2023-03-31T02:24:40.955Z,95658.16
2023-03-31T02:27:07.240Z,95646.69
2023-03-31T02:29:33.599Z,95634.69
2023-03-31T02:31:59.979Z,95632.06
2023-03-31T02:34:26.371Z,95629.28
2023-03-31T02:36:52.693Z,95623.19
2023-03-31T02:39:18.989Z,95612.97
2023-03-31T02:41:45.278Z,95611.09
2023-03-31T02:44:11.607Z,95616.06
2023-03-31T02:46:37.920Z,95607.19
2023-03-31T02:49:04.250Z,95600.41
2023-03-31T02:51:30.579Z,95586.88
2023-03-31T02:53:56.865Z,95585.91
2023-03-31T02:56:23.160Z,95587.97
2023-03-31T02:58:49.493Z,95571.50
2023-03-31T03:01:15.859Z,95563.72
2023-03-31T03:03:42.226Z,95565.44
2023-03-31T03:06:08.709Z,95560.94
2023-03-31T03:08:35.148Z,95556.16
2023-03-31T03:11:01.458Z,95556.47
2023-03-31T03:13:27.771Z,95562.19
2023-03-31T03:15:54.059Z,95580.66
2023-03-31T03:18:20.406Z,95591.53
2023-03-31T03:20:46.742Z,95593.28
2023-03-31T03:23:13.038Z,95594.63
2023-03-31T03:25:39.343Z,95576.28
2023-03-31T03:28:05.655Z,95562.78
2023-03-31T03:30:32.021Z,95555.28
2023-03-31T03:32:58.386Z,95546.88
2023-03-31T03:35:24.774Z,95542.38
2023-03-31T03:37:51.100Z,95522.66
2023-03-31T03:40:17.413Z,95523.31
2023-03-31T03:42:43.725Z,95516.13
2023-03-31T03:45:10.030Z,95511.94
2023-03-31T03:47:36.390Z,95513.31
2023-03-31T03:50:02.792Z,95508.56
2023-03-31T03:52:29.092Z,95491.34
2023-03-31T03:54:55.387Z,95488.72
2023-03-31T03:57:21.774Z,95477.25
2023-03-31T03:59:48.116Z,95460.78
2023-03-31T04:02:14.480Z,95454.88
2023-03-31T04:04:40.932Z,95458.75
2023-03-31T04:07:07.245Z,95461.56
2023-03-31T04:09:33.539Z,95465.59
2023-03-31T04:11:59.879Z,95476.75
2023-03-31T04:14:26.187Z,95464.97
2023-03-31T04:16:52.488Z,95470.25
2023-03-31T04:19:20.245Z,95494.13
2023-03-31T04:21:46.531Z,95471.47
2023-03-31T04:24:12.844Z,95465.59
2023-03-31T04:26:39.216Z,95443.69
2023-03-31T04:29:05.537Z,95455.63
2023-03-31T04:31:32.522Z,95464.34
2023-03-31T04:33:58.895Z,95460.31
2023-03-31T04:36:25.196Z,95467.09
2023-03-31T04:38:52.438Z,95454.41
2023-03-31T04:41:19.592Z,95449.75
2023-03-31T04:43:45.897Z,95462.81
2023-03-31T04:46:12.254Z,95464.03
2023-03-31T04:48:38.630Z,95456.75
2023-03-31T04:51:04.942Z,95435.50
2023-03-31T04:53:31.235Z,95444.81
2023-03-31T04:55:57.566Z,95429.59
2023-03-31T04:58:23.862Z,95442.75
2023-03-31T05:00:50.156Z,95440.44
2023-03-31T05:03:16.585Z,95449.00
2023-03-31T05:05:42.937Z,95433.31
2023-03-31T05:08:09.240Z,95439.38
2023-03-31T05:10:35.554Z,95426.78
2023-03-31T05:13:01.867Z,95431.00
2023-03-31T05:15:28.178Z,95428.34
2023-03-31T05:17:54.520Z,95417.34
2023-03-31T05:20:20.861Z,95413.75
2023-03-31T05:22:47.154Z,95417.03
2023-03-31T05:25:13.491Z,95410.03
2023-03-31T05:27:39.789Z,95405.53
2023-03-31T05:30:06.093Z,95396.34
2023-03-31T05:32:32.449Z,95405.06
2023-03-31T05:34:58.745Z,95412.81
2023-03-31T05:37:25.059Z,95422.75
2023-03-31T05:39:51.398Z,95412.34
2023-03-31T05:42:17.691Z,95412.06
2023-03-31T05:44:43.989Z,95410.94
2023-03-31T05:47:10.348Z,95418.41
2023-03-31T05:49:36.650Z,95413.44
2023-03-31T05:52:02.991Z,95417.31
2023-03-31T05:54:29.329Z,95437.81
2023-03-31T05:56:55.644Z,95433.00
2023-03-31T05:59:22.057Z,95427.56
2023-03-31T06:01:48.469Z,95419.34
2023-03-31T06:04:15.007Z,95446.34
2023-03-31T06:06:41.326Z,95432.66
2023-03-31T06:09:07.661Z,95432.34
2023-03-31T06:11:33.964Z,95427.72
2023-03-31T06:14:00.249Z,95428.63
2023-03-31T06:16:26.606Z,95439.19
2023-03-31T06:18:52.948Z,95444.78
2023-03-31T06:21:19.261Z,95454.44
2023-03-31T06:23:45.595Z,95449.13
2023-03-31T06:26:12.294Z,95453.19
2023-03-31T06:28:38.604Z,95437.97
2023-03-31T06:31:05.142Z,95432.50
2023-03-31T06:33:31.736Z,95441.38
2023-03-31T06:35:58.073Z,95447.59
2023-03-31T06:38:24.423Z,95445.41
2023-03-31T06:40:50.727Z,95441.22
2023-03-31T06:43:17.033Z,95441.69
2023-03-31T06:45:43.391Z,95434.25
2023-03-31T06:48:09.776Z,95451.47
2023-03-31T06:50:36.064Z,95444.66
2023-03-31T06:53:02.420Z,95453.47
2023-03-31T06:55:30.586Z,95465.59
2023-03-31T06:57:56.893Z,95452.09
2023-03-31T07:00:23.428Z,95450.84
2023-03-31T07:02:49.863Z,95448.50
2023-03-31T07:05:16.247Z,95446.63
2023-03-31T07:07:44.321Z,95439.81
2023-03-31T07:10:12.174Z,95440.25
2023-03-31T07:12:38.478Z,95444.78
2023-03-31T07:15:04.835Z,95434.66
2023-03-31T07:17:31.162Z,95442.59
2023-03-31T07:19:58.779Z,95432.66
2023-03-31T07:22:25.114Z,95434.97
2023-03-31T07:24:51.405Z,95429.84
2023-03-31T07:27:17.690Z,95445.69
2023-03-31T07:29:47.006Z,95456.41
2023-03-31T07:32:13.365Z,95435.09
2023-03-31T07:34:39.727Z,95432.28
2023-03-31T07:37:06.049Z,95440.31
2023-03-31T07:39:32.376Z,95442.28
2023-03-31T07:41:58.660Z,95451.13
2023-03-31T07:44:24.954Z,95442.25
2023-03-31T07:46:51.240Z,95435.59
2023-03-31T07:49:17.538Z,95448.06
2023-03-31T07:51:43.851Z,95443.34
2023-03-31T07:54:10.221Z,95431.38
2023-03-31T07:56:36.503Z,95434.84
2023-03-31T07:59:02.826Z,95448.00
2023-03-31T08:01:29.119Z,95443.31
2023-03-31T08:03:55.739Z,95448.06
2023-03-31T08:06:22.373Z,95459.19
2023-03-31T08:08:48.768Z,95464.88
2023-03-31T08:11:15.069Z,95467.53
2023-03-31T08:13:41.416Z,95466.63
2023-03-31T08:16:07.975Z,95472.78
2023-03-31T08:18:34.507Z,95457.50
2023-03-31T08:21:00.827Z,95459.06
2023-03-31T08:23:27.107Z,95459.06
2023-03-31T08:25:53.386Z,95457.25
2023-03-31T08:28:19.690Z,95458.19
2023-03-31T08:30:45.971Z,95459.81
2023-03-31T08:33:12.261Z,95484.59
2023-03-31T08:35:38.624Z,95507.28
2023-03-31T08:38:04.912Z,95490.81
2023-03-31T08:40:31.197Z,95500.09
2023-03-31T08:42:57.495Z,95470.09
2023-03-31T08:45:23.762Z,95462.06
2023-03-31T08:47:50.064Z,95461.50
2023-03-31T08:50:16.421Z,95459.13
2023-03-31T08:52:42.696Z,95445.31
2023-03-31T08:55:08.979Z,95431.19
2023-03-31T08:57:35.312Z,95434.94
2023-03-31T09:00:01.635Z,95406.91
2023-03-31T09:02:28.128Z,95405.94
2023-03-31T09:04:54.651Z,95419.97
2023-03-31T09:07:21.110Z,95398.19
2023-03-31T09:09:47.556Z,95395.94
2023-03-31T09:12:13.917Z,95379.59
2023-03-31T09:14:40.225Z,95380.28
2023-03-31T09:17:06.682Z,95395.28
2023-03-31T09:19:33.117Z,95396.63
2023-03-31T09:21:59.404Z,95393.44
2023-03-31T09:24:25.729Z,95390.16
2023-03-31T09:26:52.060Z,95392.75
2023-03-31T09:29:18.352Z,95388.13
2023-03-31T09:31:44.760Z,95393.75
2023-03-31T09:34:11.100Z,95401.50
2023-03-31T09:36:37.403Z,95392.75
2023-03-31T09:39:03.699Z,95390.16
2023-03-31T09:41:31.836Z,95413.25
2023-03-31T09:43:59.297Z,95416.94
2023-03-31T09:46:25.603Z,95427.66
2023-03-31T09:48:51.966Z,95427.06
2023-03-31T09:51:18.263Z,95426.56
2023-03-31T09:53:44.571Z,95419.22
2023-03-31T09:56:10.904Z,95406.22
2023-03-31T09:58:37.224Z,95399.97
2023-03-31T10:01:03.604Z,95409.28
2023-03-31T10:03:30.022Z,95397.81
2023-03-31T10:05:56.339Z,95390.34
2023-03-31T10:08:22.624Z,95402.94
2023-03-31T10:10:48.976Z,95385.97
2023-03-31T10:13:15.285Z,95380.16
2023-03-31T10:15:42.428Z,95389.34
2023-03-31T10:18:08.884Z,95377.66
2023-03-31T10:20:35.189Z,95369.09
2023-03-31T10:23:01.807Z,95355.00
2023-03-31T10:25:28.190Z,95340.22
2023-03-31T10:27:54.511Z,95359.41
2023-03-31T10:30:20.807Z,95354.97
2023-03-31T10:32:50.353Z,95349.13
2023-03-31T10:35:18.278Z,95342.78
2023-03-31T10:37:44.582Z,95331.63
2023-03-31T10:40:10.906Z,95331.78
2023-03-31T10:42:37.213Z,95317.00
2023-03-31T10:45:03.531Z,95324.22
2023-03-31T10:47:29.902Z,95310.94
2023-03-31T10:49:56.208Z,95325.56
2023-03-31T10:52:24.310Z,95328.06
2023-03-31T10:54:50.633Z,95319.94
2023-03-31T10:57:16.990Z,95333.81
2023-03-31T10:59:43.311Z,95334.09
2023-03-31T11:02:09.669Z,95312.66
2023-03-31T11:04:36.024Z,95345.19
2023-03-31T11:07:19.202Z,95345.19
2023-03-31T11:09:45.499Z,95384.75
2023-03-31T11:12:11.786Z,95405.72
2023-03-31T11:14:38.160Z,95393.63
2023-03-31T11:17:04.595Z,95384.03
2023-03-31T11:19:30.943Z,95389.38
2023-03-31T11:21:57.275Z,95392.63
2023-03-31T11:24:23.572Z,95396.00
2023-03-31T11:26:49.878Z,95386.44
2023-03-31T11:29:16.201Z,95374.19
2023-03-31T11:31:42.532Z,95373.94
2023-03-31T11:34:08.849Z,95364.16
2023-03-31T11:36:35.183Z,95345.09
2023-03-31T11:39:01.495Z,95353.22
2023-03-31T11:41:27.842Z,95341.44
2023-03-31T11:43:54.178Z,95342.97
2023-03-31T11:46:20.522Z,95354.28
2023-03-31T11:48:46.916Z,95350.69
2023-03-31T11:51:13.242Z,95350.22
2023-03-31T11:53:39.549Z,95340.25
2023-03-31T11:56:05.988Z,95353.06
2023-03-31T11:58:32.406Z,95366.63
2023-03-31T12:01:00.115Z,95349.84
2023-03-31T12:03:27.566Z,95364.84
2023-03-31T12:05:54.237Z,95362.97
2023-03-31T12:08:20.698Z,95364.72
2023-03-31T12:10:47.005Z,95367.28
2023-03-31T12:13:13.360Z,95381.22
2023-03-31T12:15:39.695Z,95417.41
2023-03-31T12:18:06.063Z,95392.41
2023-03-31T12:20:32.459Z,95350.41
2023-03-31T12:22:59.962Z,95342.91
2023-03-31T12:25:26.276Z,95352.50
2023-03-31T12:27:52.600Z,95360.59
2023-03-31T12:30:18.890Z,95368.09
2023-03-31T12:32:45.231Z,95371.16
2023-03-31T12:35:11.566Z,95367.88
2023-03-31T12:37:37.860Z,95349.25
2023-03-31T12:40:04.170Z,95353.25
2023-03-31T12:42:30.484Z,95339.41
2023-03-31T12:44:56.786Z,95332.16
2023-03-31T12:47:23.141Z,95305.13
2023-03-31T12:49:49.468Z,95318.91
2023-03-31T12:52:15.782Z,95316.78
2023-03-31T12:54:42.082Z,95306.22
2023-03-31T12:57:08.463Z,95320.69
2023-03-31T12:59:34.806Z,95303.34
2023-03-31T13:02:01.152Z,95314.22
2023-03-31T13:04:27.546Z,95299.63
2023-03-31T13:06:53.854Z,95281.44
2023-03-31T13:09:20.169Z,95268.53
2023-03-31T13:11:46.487Z,95274.84
2023-03-31T13:14:12.781Z,95274.22
2023-03-31T13:16:39.110Z,95265.81
2023-03-31T13:19:05.473Z,95259.97
2023-03-31T13:21:31.766Z,95266.56
2023-03-31T13:23:58.058Z,95253.31
2023-03-31T13:26:24.418Z,95262.09
2023-03-31T13:28:50.783Z,95269.38
2023-03-31T13:31:17.107Z,95263.97
2023-03-31T13:33:43.473Z,95247.59
2023-03-31T13:36:10.085Z,95245.72
2023-03-31T13:38:36.593Z,95251.25
2023-03-31T13:41:02.909Z,95238.47
2023-03-31T13:43:29.205Z,95228.25
2023-03-31T13:45:55.653Z,95237.59
2023-03-31T13:48:22.055Z,95246.00
2023-03-31T13:50:48.358Z,95243.44
2023-03-31T13:53:14.641Z,95233.00
2023-03-31T13:55:40.940Z,95241.41
2023-03-31T13:58:24.871Z,95245.19
2023-03-31T14:00:53.523Z,95241.66
2023-03-31T14:03:19.921Z,95254.31
2023-03-31T14:05:46.298Z,95262.63
2023-03-31T14:08:12.639Z,95310.88
2023-03-31T14:10:38.953Z,95381.97
2023-03-31T14:13:05.250Z,95502.56
2023-03-31T14:15:31.615Z,95481.06
2023-03-31T14:17:57.996Z,95483.56
2023-03-31T14:20:24.348Z,95461.50
2023-03-31T14:22:50.693Z,95422.50
2023-03-31T14:25:17.004Z,95425.75
2023-03-31T14:27:43.315Z,95422.19
2023-03-31T14:30:09.680Z,95354.28
2023-03-31T14:32:36.047Z,95367.44
2023-03-31T14:35:02.403Z,95334.75
2023-03-31T14:37:28.735Z,95310.94
2023-03-31T14:39:55.106Z,95316.84
2023-03-31T14:42:21.473Z,95341.94
2023-03-31T14:44:48.559Z,95348.00
2023-03-31T14:47:15.147Z,95348.78
2023-03-31T14:49:41.426Z,95354.00
2023-03-31T14:52:07.746Z,95356.34
2023-03-31T14:54:35.208Z,95365.41
2023-03-31T14:57:01.523Z,95377.19
2023-03-31T14:59:27.862Z,95362.41
2023-03-31T15:01:54.258Z,95366.22
2023-03-31T15:04:23.761Z,95345.78
2023-03-31T15:06:54.997Z,95344.28
2023-03-31T15:09:21.291Z,95327.75
2023-03-31T15:11:47.583Z,95322.44
2023-03-31T15:14:13.907Z,95324.84
2023-03-31T15:16:40.294Z,95333.97
2023-03-31T15:19:06.620Z,95310.91
2023-03-31T15:21:33.064Z,95316.78
2023-03-31T15:23:59.361Z,95308.44
2023-03-31T15:26:34.317Z,95333.84
2023-03-31T15:29:01.192Z,95322.81
2023-03-31T15:31:27.587Z,95310.56
2023-03-31T15:33:54.075Z,95331.19
2023-03-31T15:36:20.567Z,95317.16
2023-03-31T15:38:47.001Z,95304.63
2023-03-31T15:41:13.316Z,95309.44
2023-03-31T15:43:39.648Z,95313.53
2023-03-31T15:46:05.972Z,95320.63
2023-03-31T15:48:32.273Z,95291.72
2023-03-31T15:50:58.587Z,95292.97
2023-03-31T15:53:24.876Z,95299.22
2023-03-31T15:55:51.173Z,95299.84
2023-03-31T15:58:17.505Z,95279.00
2023-03-31T16:00:43.817Z,95272.66
2023-03-31T16:03:10.156Z,95269.41
2023-03-31T16:05:43.629Z,95279.69
2023-03-31T16:08:13.979Z,95263.50
2023-03-31T16:10:40.292Z,95274.06
2023-03-31T16:13:06.587Z,95267.34
2023-03-31T16:15:32.871Z,95250.09
2023-03-31T16:17:59.261Z,95253.38
2023-03-31T16:20:25.618Z,95245.94
2023-03-31T16:22:53.153Z,95243.28
2023-03-31T16:25:19.466Z,95243.25
2023-03-31T16:27:45.755Z,95251.78
2023-03-31T16:30:12.062Z,95263.00
2023-03-31T16:32:38.390Z,95278.66
2023-03-31T16:35:04.692Z,95281.94
2023-03-31T16:37:30.978Z,95285.50
2023-03-31T16:39:57.346Z,95308.50
2023-03-31T16:42:23.815Z,95371.53
2023-03-31T16:45:04.370Z,95395.97
2023-03-31T16:47:36.608Z,95452.03
2023-03-31T16:50:03.041Z,95467.69
2023-03-31T16:52:29.325Z,95447.44
2023-03-31T16:54:55.624Z,95425.84
2023-03-31T16:57:21.935Z,95384.25
2023-03-31T16:59:48.278Z,95313.72
2023-03-31T17:02:14.623Z,95346.38
2023-03-31T17:04:40.927Z,95317.19
2023-03-31T17:07:07.216Z,95357.63
2023-03-31T17:09:33.536Z,95356.84
2023-03-31T17:11:59.824Z,95424.66
2023-03-31T17:14:26.110Z,95444.25
2023-03-31T17:16:52.459Z,95453.91
2023-03-31T17:19:18.788Z,95454.16
2023-03-31T17:21:45.098Z,95472.03
2023-03-31T17:24:11.438Z,95471.47
2023-03-31T17:26:37.743Z,95474.59
2023-03-31T17:29:04.041Z,95477.72
2023-03-31T17:31:30.379Z,95448.59
2023-03-31T17:33:56.726Z,95471.28
2023-03-31T17:36:23.009Z,95442.44
2023-03-31T17:38:49.414Z,95440.66
2023-03-31T17:41:15.755Z,95435.31
2023-03-31T17:43:42.025Z,95441.25
2023-03-31T17:46:10.832Z,95447.44
2023-03-31T17:48:38.604Z,95430.91
2023-03-31T17:51:04.900Z,95429.44
2023-03-31T17:53:31.227Z,95433.69
2023-03-31T17:55:57.517Z,95431.22
2023-03-31T17:58:23.804Z,95415.41
2023-03-31T18:00:50.109Z,95406.53
2023-03-31T18:03:16.396Z,95408.75
2023-03-31T18:05:42.669Z,95415.88
2023-03-31T18:08:08.970Z,95426.66
2023-03-31T18:10:35.566Z,95430.66
2023-03-31T18:13:02.767Z,95424.88
2023-03-31T18:15:29.084Z,95427.44
2023-03-31T18:17:55.447Z,95421.78
2023-03-31T18:20:21.894Z,95430.56
2023-03-31T18:22:48.202Z,95435.91
2023-03-31T18:25:14.497Z,95447.44
2023-03-31T18:27:40.809Z,95451.34
2023-03-31T18:30:07.158Z,95449.03
2023-03-31T18:32:33.609Z,95451.81
2023-03-31T18:34:59.951Z,95448.91
2023-03-31T18:37:26.263Z,95455.56
2023-03-31T18:39:52.556Z,95447.66
2023-03-31T18:42:18.862Z,95461.91
2023-03-31T18:44:45.180Z,95468.91
2023-03-31T18:47:11.497Z,95457.78
2023-03-31T18:49:37.806Z,95466.34
2023-03-31T18:52:04.277Z,95468.34
2023-03-31T18:54:30.587Z,95469.25
2023-03-31T18:56:56.988Z,95468.81
2023-03-31T18:59:23.316Z,95473.03
2023-03-31T19:01:49.641Z,95475.16
2023-03-31T19:04:16.014Z,95481.13
2023-03-31T19:06:42.331Z,95492.94
2023-03-31T19:09:08.652Z,95500.94
2023-03-31T19:11:35.009Z,95504.84
2023-03-31T19:14:01.317Z,95514.53
2023-03-31T19:16:27.744Z,95516.06
2023-03-31T19:18:54.087Z,95522.22
2023-03-31T19:21:20.424Z,95532.78
2023-03-31T19:23:46.718Z,95534.56
2023-03-31T19:26:13.012Z,95532.88
2023-03-31T19:28:39.326Z,95536.75
2023-03-31T19:31:05.645Z,95540.22
2023-03-31T19:33:31.951Z,95530.41
2023-03-31T19:35:58.302Z,95549.53
2023-03-31T19:38:24.620Z,95541.97
2023-03-31T19:40:50.912Z,95553.56
2023-03-31T19:43:17.224Z,95567.34
2023-03-31T19:45:43.543Z,95567.34
2023-03-31T19:48:09.944Z,95557.44
2023-03-31T19:50:36.297Z,95554.22
2023-03-31T19:53:02.599Z,95555.53
2023-03-31T19:55:29.115Z,95556.41
2023-03-31T19:57:55.641Z,95548.31
2023-03-31T20:00:21.919Z,95546.00
2023-03-31T20:02:48.388Z,95516.22
2023-03-31T20:05:14.867Z,95539.41
2023-03-31T20:07:41.164Z,95528.22
2023-03-31T20:10:07.484Z,95539.22
2023-03-31T20:12:33.795Z,95534.06
2023-03-31T20:15:00.115Z,95533.88
2023-03-31T20:17:26.408Z,95538.72
2023-03-31T20:19:52.728Z,95548.28
2023-03-31T20:22:19.018Z,95554.09
2023-03-31T20:24:45.319Z,95558.09
2023-03-31T20:27:11.639Z,95568.16
2023-03-31T20:29:37.937Z,95569.38
2023-03-31T20:32:04.230Z,95569.28
2023-03-31T20:34:30.556Z,95572.03
2023-03-31T20:36:56.854Z,95559.63
2023-03-31T20:39:23.154Z,95570.91
2023-03-31T20:41:49.484Z,95578.53
2023-03-31T20:44:16.082Z,95583.69
2023-03-31T20:46:42.455Z,95574.31
2023-03-31T20:49:08.811Z,95583.06
2023-03-31T20:51:35.117Z,95585.69
2023-03-31T20:54:01.476Z,95578.75
2023-03-31T20:56:27.895Z,95574.13
2023-03-31T20:58:54.198Z,95577.19
2023-03-31T21:01:20.520Z,95562.31
2023-03-31T21:03:46.939Z,95567.31
2023-03-31T21:06:13.310Z,95570.84
2023-03-31T21:08:39.688Z,95571.63
2023-03-31T21:11:06.010Z,95563.84
2023-03-31T21:13:32.307Z,95571.84
2023-03-31T21:15:58.599Z,95565.81
2023-03-31T21:18:24.915Z,95572.84
2023-03-31T21:20:51.219Z,95577.16
2023-03-31T21:23:17.512Z,95587.38
2023-03-31T21:25:43.821Z,95577.16
2023-03-31T21:28:10.118Z,95578.91
2023-03-31T21:30:36.421Z,95576.63
2023-03-31T21:33:02.765Z,95582.41
2023-03-31T21:35:29.106Z,95573.84
2023-03-31T21:37:55.479Z,95578.03
2023-03-31T21:40:21.787Z,95580.28
2023-03-31T21:42:49.615Z,95586.00
2023-03-31T21:45:15.920Z,95573.75
2023-03-31T21:47:42.245Z,95563.81
2023-03-31T21:50:08.561Z,95576.81
2023-03-31T21:52:34.852Z,95567.19
2023-03-31T21:55:01.183Z,95566.38
2023-03-31T21:57:27.499Z,95561.03
2023-03-31T21:59:53.831Z,95566.91
2023-03-31T22:02:20.148Z,95571.41
2023-03-31T22:04:46.533Z,95563.97
2023-03-31T22:07:12.832Z,95579.31
2023-03-31T22:09:39.177Z,95584.78
2023-03-31T22:12:05.454Z,95573.84
2023-03-31T22:14:31.725Z,95574.84
2023-03-31T22:16:58.022Z,95574.19
2023-03-31T22:19:24.304Z,95563.09
2023-03-31T22:21:50.615Z,95580.50
2023-03-31T22:24:16.923Z,95566.22
2023-03-31T22:26:43.228Z,95568.91
2023-03-31T22:29:09.539Z,95561.38
2023-03-31T22:31:35.870Z,95561.66
2023-03-31T22:34:02.178Z,95557.38
2023-03-31T22:36:28.510Z,95573.84
2023-03-31T22:38:54.858Z,95579.22
2023-03-31T22:41:21.151Z,95589.72
2023-03-31T22:43:47.437Z,95584.78
2023-03-31T22:46:13.792Z,95581.84
2023-03-31T22:48:40.142Z,95589.13
2023-03-31T22:51:06.433Z,95592.94
2023-03-31T22:53:32.732Z,95597.25
2023-03-31T22:55:59.023Z,95605.31
2023-03-31T22:58:25.337Z,95610.75
2023-03-31T23:00:51.700Z,95615.59
2023-03-31T23:03:18.022Z,95605.19
2023-03-31T23:05:44.319Z,95600.84
2023-03-31T23:08:10.736Z,95606.03
2023-03-31T23:10:37.027Z,95590.41
2023-03-31T23:13:03.332Z,95591.53
2023-03-31T23:15:30.012Z,95613.19
2023-03-31T23:17:56.494Z,95612.97
2023-03-31T23:20:22.822Z,95613.78
2023-03-31T23:22:49.124Z,95607.13
2023-03-31T23:25:15.409Z,95599.41
2023-03-31T23:27:41.694Z,95591.75
2023-03-31T23:30:08.002Z,95602.00
2023-03-31T23:32:34.317Z,95606.69
2023-03-31T23:35:00.631Z,95598.28
2023-03-31T23:37:27.010Z,95609.53
2023-03-31T23:39:53.293Z,95601.91
2023-03-31T23:42:19.582Z,95607.41
2023-03-31T23:44:45.909Z,95611.28
2023-03-31T23:47:12.220Z,95608.50
2023-03-31T23:49:38.513Z,95608.69
2023-03-31T23:52:04.832Z,95605.66
2023-03-31T23:54:31.125Z,95605.75
2023-03-31T23:56:57.428Z,95594.47
2023-03-31T23:59:23.765Z,95598.97
